sensor_id;sensor_type;location;lat;lon;timestamp;P1;durP1;ratioP1;P2;durP2;ratioP2
18999;SDS011;9633;50.980;13.850;2023-02-21T00:00:14;4.97;;;3.47;;
18999;SDS011;9633;50.980;13.850;2023-02-21T00:02:06;5.00;;;3.60;;
18999;SDS011;9633;50.980;13.850;2023-02-21T00:03:58;4.33;;;3.70;;
18999;SDS011;9633;50.980;13.850;2023-02-21T00:05:50;4.33;;;3.67;;
18999;SDS011;9633;50.980;13.850;2023-02-21T00:07:42;4.83;;;3.63;;
18999;SDS011;9633;50.980;13.850;2023-02-21T00:09:34;5.03;;;3.47;;
18999;SDS011;9633;50.980;13.850;2023-02-21T00:11:26;4.80;;;3.20;;
18999;SDS011;9633;50.980;13.850;2023-02-21T00:13:18;5.60;;;3.63;;
18999;SDS011;9633;50.980;13.850;2023-02-21T00:15:12;5.20;;;3.30;;
18999;SDS011;9633;50.980;13.850;2023-02-21T00:17:02;5.00;;;3.73;;
18999;SDS011;9633;50.980;13.850;2023-02-21T00:18:54;4.57;;;3.40;;
18999;SDS011;9633;50.980;13.850;2023-02-21T00:20:47;4.87;;;4.10;;
18999;SDS011;9633;50.980;13.850;2023-02-21T00:22:39;4.40;;;3.67;;
18999;SDS011;9633;50.980;13.850;2023-02-21T00:24:29;4.93;;;3.70;;
18999;SDS011;9633;50.980;13.850;2023-02-21T00:26:20;5.63;;;4.10;;
18999;SDS011;9633;50.980;13.850;2023-02-21T00:28:11;5.57;;;3.90;;
18999;SDS011;9633;50.980;13.850;2023-02-21T00:30:02;5.50;;;3.80;;
18999;SDS011;9633;50.980;13.850;2023-02-21T00:31:55;4.83;;;3.80;;
18999;SDS011;9633;50.980;13.850;2023-02-21T00:33:47;5.07;;;4.03;;
18999;SDS011;9633;50.980;13.850;2023-02-21T00:35:37;4.03;;;3.60;;
18999;SDS011;9633;50.980;13.850;2023-02-21T00:37:28;4.97;;;3.80;;
18999;SDS011;9633;50.980;13.850;2023-02-21T00:39:19;4.40;;;3.67;;
18999;SDS011;9633;50.980;13.850;2023-02-21T00:41:10;6.40;;;3.63;;
18999;SDS011;9633;50.980;13.850;2023-02-21T00:43:01;5.43;;;3.80;;
18999;SDS011;9633;50.980;13.850;2023-02-21T00:44:52;5.40;;;3.93;;
18999;SDS011;9633;50.980;13.850;2023-02-21T00:46:42;5.03;;;3.93;;
18999;SDS011;9633;50.980;13.850;2023-02-21T00:48:34;5.37;;;4.00;;
18999;SDS011;9633;50.980;13.850;2023-02-21T00:50:24;4.70;;;3.93;;
18999;SDS011;9633;50.980;13.850;2023-02-21T00:52:15;5.67;;;4.10;;
18999;SDS011;9633;50.980;13.850;2023-02-21T00:54:05;4.77;;;3.87;;
18999;SDS011;9633;50.980;13.850;2023-02-21T00:55:56;4.53;;;3.97;;
18999;SDS011;9633;50.980;13.850;2023-02-21T00:57:47;6.17;;;4.33;;
18999;SDS011;9633;50.980;13.850;2023-02-21T00:59:38;5.20;;;4.37;;
18999;SDS011;9633;50.980;13.850;2023-02-21T01:01:28;5.53;;;4.27;;
18999;SDS011;9633;50.980;13.850;2023-02-21T01:03:21;5.13;;;4.40;;
18999;SDS011;9633;50.980;13.850;2023-02-21T01:05:13;7.17;;;4.00;;
18999;SDS011;9633;50.980;13.850;2023-02-21T01:07:03;4.77;;;3.60;;
18999;SDS011;9633;50.980;13.850;2023-02-21T01:08:54;5.93;;;4.13;;
18999;SDS011;9633;50.980;13.850;2023-02-21T01:10:44;7.40;;;4.40;;
18999;SDS011;9633;50.980;13.850;2023-02-21T01:12:34;5.57;;;4.20;;
18999;SDS011;9633;50.980;13.850;2023-02-21T01:14:27;4.90;;;3.60;;
18999;SDS011;9633;50.980;13.850;2023-02-21T01:16:17;4.97;;;3.60;;
18999;SDS011;9633;50.980;13.850;2023-02-21T01:18:07;5.80;;;3.30;;
18999;SDS011;9633;50.980;13.850;2023-02-21T01:19:59;3.50;;;3.20;;
18999;SDS011;9633;50.980;13.850;2023-02-21T01:21:51;4.27;;;3.33;;
18999;SDS011;9633;50.980;13.850;2023-02-21T01:23:42;4.07;;;2.70;;
18999;SDS011;9633;50.980;13.850;2023-02-21T01:25:32;4.17;;;3.30;;
18999;SDS011;9633;50.980;13.850;2023-02-21T01:27:23;3.50;;;2.83;;
18999;SDS011;9633;50.980;13.850;2023-02-21T01:29:13;3.97;;;3.00;;
18999;SDS011;9633;50.980;13.850;2023-02-21T01:31:04;3.70;;;2.97;;
18999;SDS011;9633;50.980;13.850;2023-02-21T01:32:54;3.50;;;2.60;;
18999;SDS011;9633;50.980;13.850;2023-02-21T01:34:45;3.77;;;2.80;;
18999;SDS011;9633;50.980;13.850;2023-02-21T01:36:39;3.77;;;2.90;;
18999;SDS011;9633;50.980;13.850;2023-02-21T01:38:32;3.60;;;3.00;;
18999;SDS011;9633;50.980;13.850;2023-02-21T01:40:23;3.50;;;2.63;;
18999;SDS011;9633;50.980;13.850;2023-02-21T01:42:16;4.00;;;3.33;;
18999;SDS011;9633;50.980;13.850;2023-02-21T01:44:28;3.73;;;3.10;;
18999;SDS011;9633;50.980;13.850;2023-02-21T01:46:25;3.00;;;2.60;;
18999;SDS011;9633;50.980;13.850;2023-02-21T01:48:16;4.70;;;3.27;;
18999;SDS011;9633;50.980;13.850;2023-02-21T01:50:12;3.47;;;2.83;;
18999;SDS011;9633;50.980;13.850;2023-02-21T01:52:05;3.33;;;2.60;;
18999;SDS011;9633;50.980;13.850;2023-02-21T01:53:56;3.57;;;2.97;;
18999;SDS011;9633;50.980;13.850;2023-02-21T01:55:48;4.77;;;3.40;;
18999;SDS011;9633;50.980;13.850;2023-02-21T01:57:39;3.90;;;2.77;;
18999;SDS011;9633;50.980;13.850;2023-02-21T01:59:30;4.63;;;2.93;;
18999;SDS011;9633;50.980;13.850;2023-02-21T02:01:28;4.10;;;3.20;;
18999;SDS011;9633;50.980;13.850;2023-02-21T02:03:24;4.43;;;3.20;;
18999;SDS011;9633;50.980;13.850;2023-02-21T02:05:16;4.40;;;3.27;;
18999;SDS011;9633;50.980;13.850;2023-02-21T02:07:07;3.80;;;3.20;;
18999;SDS011;9633;50.980;13.850;2023-02-21T02:09:05;5.87;;;3.37;;
18999;SDS011;9633;50.980;13.850;2023-02-21T02:11:03;4.13;;;3.20;;
18999;SDS011;9633;50.980;13.850;2023-02-21T02:13:15;3.43;;;2.63;;
18999;SDS011;9633;50.980;13.850;2023-02-21T02:15:10;3.73;;;3.23;;
18999;SDS011;9633;50.980;13.850;2023-02-21T02:16:55;3.90;;;3.00;;
18999;SDS011;9633;50.980;13.850;2023-02-21T02:18:44;5.90;;;3.10;;
18999;SDS011;9633;50.980;13.850;2023-02-21T02:20:47;4.60;;;3.33;;
18999;SDS011;9633;50.980;13.850;2023-02-21T02:24:49;4.87;;;2.80;;
18999;SDS011;9633;50.980;13.850;2023-02-21T02:26:38;5.10;;;3.10;;
18999;SDS011;9633;50.980;13.850;2023-02-21T02:28:43;3.77;;;3.37;;
18999;SDS011;9633;50.980;13.850;2023-02-21T02:30:42;3.57;;;3.03;;
18999;SDS011;9633;50.980;13.850;2023-02-21T02:32:51;4.10;;;3.13;;
18999;SDS011;9633;50.980;13.850;2023-02-21T02:34:53;5.10;;;3.17;;
18999;SDS011;9633;50.980;13.850;2023-02-21T02:36:33;4.90;;;3.23;;
18999;SDS011;9633;50.980;13.850;2023-02-21T02:38:12;3.97;;;3.00;;
18999;SDS011;9633;50.980;13.850;2023-02-21T02:39:53;3.63;;;3.20;;
18999;SDS011;9633;50.980;13.850;2023-02-21T02:41:34;4.30;;;2.90;;
18999;SDS011;9633;50.980;13.850;2023-02-21T02:43:19;4.30;;;2.80;;
18999;SDS011;9633;50.980;13.850;2023-02-21T02:44:59;4.07;;;3.13;;
18999;SDS011;9633;50.980;13.850;2023-02-21T02:46:33;4.77;;;3.20;;
18999;SDS011;9633;50.980;13.850;2023-02-21T02:48:13;4.07;;;2.80;;
18999;SDS011;9633;50.980;13.850;2023-02-21T02:49:49;3.67;;;2.70;;
18999;SDS011;9633;50.980;13.850;2023-02-21T02:51:25;3.63;;;2.80;;
18999;SDS011;9633;50.980;13.850;2023-02-21T02:53:02;3.70;;;3.03;;
18999;SDS011;9633;50.980;13.850;2023-02-21T02:54:36;4.60;;;3.17;;
18999;SDS011;9633;50.980;13.850;2023-02-21T02:56:11;3.77;;;3.27;;
18999;SDS011;9633;50.980;13.850;2023-02-21T02:57:45;3.83;;;2.77;;
18999;SDS011;9633;50.980;13.850;2023-02-21T02:59:22;4.77;;;3.17;;
18999;SDS011;9633;50.980;13.850;2023-02-21T03:01:03;4.57;;;2.90;;
18999;SDS011;9633;50.980;13.850;2023-02-21T03:02:52;3.60;;;3.03;;
18999;SDS011;9633;50.980;13.850;2023-02-21T03:04:43;4.43;;;3.10;;
18999;SDS011;9633;50.980;13.850;2023-02-21T03:06:46;3.90;;;2.87;;
18999;SDS011;9633;50.980;13.850;2023-02-21T03:08:26;4.07;;;3.20;;
18999;SDS011;9633;50.980;13.850;2023-02-21T03:10:08;5.23;;;2.90;;
18999;SDS011;9633;50.980;13.850;2023-02-21T03:11:50;5.43;;;3.13;;
18999;SDS011;9633;50.980;13.850;2023-02-21T03:13:33;4.00;;;3.20;;
18999;SDS011;9633;50.980;13.850;2023-02-21T03:15:12;3.50;;;2.80;;
18999;SDS011;9633;50.980;13.850;2023-02-21T03:16:50;3.57;;;2.90;;
18999;SDS011;9633;50.980;13.850;2023-02-21T03:18:27;4.23;;;3.10;;
18999;SDS011;9633;50.980;13.850;2023-02-21T03:20:03;7.03;;;3.03;;
18999;SDS011;9633;50.980;13.850;2023-02-21T03:21:38;4.00;;;3.17;;
18999;SDS011;9633;50.980;13.850;2023-02-21T03:23:16;6.13;;;3.30;;
18999;SDS011;9633;50.980;13.850;2023-02-21T03:24:51;4.07;;;3.37;;
18999;SDS011;9633;50.980;13.850;2023-02-21T03:26:26;5.20;;;3.33;;
18999;SDS011;9633;50.980;13.850;2023-02-21T03:28:10;5.33;;;2.73;;
18999;SDS011;9633;50.980;13.850;2023-02-21T03:29:46;4.93;;;3.33;;
18999;SDS011;9633;50.980;13.850;2023-02-21T03:31:20;4.13;;;3.40;;
18999;SDS011;9633;50.980;13.850;2023-02-21T03:32:57;5.90;;;3.40;;
18999;SDS011;9633;50.980;13.850;2023-02-21T03:34:31;5.87;;;3.37;;
18999;SDS011;9633;50.980;13.850;2023-02-21T03:36:05;5.47;;;3.60;;
18999;SDS011;9633;50.980;13.850;2023-02-21T03:37:41;5.57;;;3.70;;
18999;SDS011;9633;50.980;13.850;2023-02-21T03:39:15;4.83;;;3.30;;
18999;SDS011;9633;50.980;13.850;2023-02-21T03:40:50;4.90;;;3.50;;
18999;SDS011;9633;50.980;13.850;2023-02-21T03:42:22;4.77;;;3.60;;
18999;SDS011;9633;50.980;13.850;2023-02-21T03:43:55;3.90;;;3.17;;
18999;SDS011;9633;50.980;13.850;2023-02-21T03:45:28;3.50;;;3.20;;
18999;SDS011;9633;50.980;13.850;2023-02-21T03:47:11;4.43;;;3.10;;
18999;SDS011;9633;50.980;13.850;2023-02-21T03:48:45;4.40;;;3.50;;
18999;SDS011;9633;50.980;13.850;2023-02-21T03:50:24;6.07;;;3.70;;
18999;SDS011;9633;50.980;13.850;2023-02-21T03:51:57;4.80;;;3.50;;
18999;SDS011;9633;50.980;13.850;2023-02-21T03:53:31;3.80;;;3.33;;
18999;SDS011;9633;50.980;13.850;2023-02-21T03:55:07;4.50;;;3.20;;
18999;SDS011;9633;50.980;13.850;2023-02-21T03:56:39;5.77;;;3.97;;
18999;SDS011;9633;50.980;13.850;2023-02-21T03:58:27;5.17;;;3.90;;
18999;SDS011;9633;50.980;13.850;2023-02-21T04:00:00;4.50;;;3.67;;
18999;SDS011;9633;50.980;13.850;2023-02-21T04:01:34;4.77;;;3.40;;
18999;SDS011;9633;50.980;13.850;2023-02-21T04:03:08;4.83;;;3.67;;
18999;SDS011;9633;50.980;13.850;2023-02-21T04:04:50;5.77;;;3.40;;
18999;SDS011;9633;50.980;13.850;2023-02-21T04:06:26;4.37;;;3.10;;
18999;SDS011;9633;50.980;13.850;2023-02-21T04:07:58;4.90;;;3.50;;
18999;SDS011;9633;50.980;13.850;2023-02-21T04:09:32;5.43;;;3.60;;
18999;SDS011;9633;50.980;13.850;2023-02-21T04:11:07;4.00;;;3.40;;
18999;SDS011;9633;50.980;13.850;2023-02-21T04:12:40;4.50;;;3.57;;
18999;SDS011;9633;50.980;13.850;2023-02-21T04:14:13;4.10;;;3.50;;
18999;SDS011;9633;50.980;13.850;2023-02-21T04:15:47;5.37;;;3.90;;
18999;SDS011;9633;50.980;13.850;2023-02-21T04:17:20;5.13;;;3.67;;
18999;SDS011;9633;50.980;13.850;2023-02-21T04:18:54;4.90;;;3.93;;
18999;SDS011;9633;50.980;13.850;2023-02-21T04:20:29;4.10;;;3.40;;
18999;SDS011;9633;50.980;13.850;2023-02-21T04:22:03;4.37;;;3.57;;
18999;SDS011;9633;50.980;13.850;2023-02-21T04:23:36;6.10;;;3.60;;
18999;SDS011;9633;50.980;13.850;2023-02-21T04:25:10;6.10;;;3.70;;
18999;SDS011;9633;50.980;13.850;2023-02-21T04:26:51;4.97;;;4.00;;
18999;SDS011;9633;50.980;13.850;2023-02-21T04:28:26;4.70;;;3.33;;
18999;SDS011;9633;50.980;13.850;2023-02-21T04:29:59;4.97;;;3.97;;
18999;SDS011;9633;50.980;13.850;2023-02-21T04:31:32;7.33;;;4.17;;
18999;SDS011;9633;50.980;13.850;2023-02-21T04:33:11;4.97;;;3.80;;
18999;SDS011;9633;50.980;13.850;2023-02-21T04:34:44;5.93;;;4.57;;
18999;SDS011;9633;50.980;13.850;2023-02-21T04:36:17;4.77;;;4.27;;
18999;SDS011;9633;50.980;13.850;2023-02-21T04:37:50;5.87;;;4.47;;
18999;SDS011;9633;50.980;13.850;2023-02-21T04:39:23;5.70;;;4.10;;
18999;SDS011;9633;50.980;13.850;2023-02-21T04:40:56;5.43;;;4.03;;
18999;SDS011;9633;50.980;13.850;2023-02-21T04:42:30;4.80;;;4.23;;
18999;SDS011;9633;50.980;13.850;2023-02-21T04:44:03;5.70;;;4.60;;
18999;SDS011;9633;50.980;13.850;2023-02-21T04:45:37;5.90;;;4.33;;
18999;SDS011;9633;50.980;13.850;2023-02-21T04:47:11;4.97;;;4.30;;
18999;SDS011;9633;50.980;13.850;2023-02-21T04:48:44;5.63;;;4.27;;
18999;SDS011;9633;50.980;13.850;2023-02-21T04:50:19;5.47;;;4.13;;
18999;SDS011;9633;50.980;13.850;2023-02-21T04:51:52;5.87;;;4.37;;
18999;SDS011;9633;50.980;13.850;2023-02-21T04:53:25;6.33;;;4.67;;
18999;SDS011;9633;50.980;13.850;2023-02-21T04:54:57;5.57;;;4.37;;
18999;SDS011;9633;50.980;13.850;2023-02-21T04:56:31;7.20;;;4.53;;
18999;SDS011;9633;50.980;13.850;2023-02-21T04:58:05;5.10;;;4.10;;
18999;SDS011;9633;50.980;13.850;2023-02-21T04:59:38;6.10;;;5.03;;
18999;SDS011;9633;50.980;13.850;2023-02-21T05:01:12;6.07;;;4.50;;
18999;SDS011;9633;50.980;13.850;2023-02-21T05:02:46;5.67;;;4.50;;
18999;SDS011;9633;50.980;13.850;2023-02-21T05:04:20;5.93;;;4.80;;
18999;SDS011;9633;50.980;13.850;2023-02-21T05:05:52;6.93;;;4.70;;
18999;SDS011;9633;50.980;13.850;2023-02-21T05:07:25;6.73;;;5.20;;
18999;SDS011;9633;50.980;13.850;2023-02-21T05:08:58;6.03;;;5.00;;
18999;SDS011;9633;50.980;13.850;2023-02-21T05:10:30;5.80;;;4.30;;
18999;SDS011;9633;50.980;13.850;2023-02-21T05:12:15;5.50;;;4.60;;
18999;SDS011;9633;50.980;13.850;2023-02-21T05:13:50;8.37;;;5.17;;
18999;SDS011;9633;50.980;13.850;2023-02-21T05:15:23;6.13;;;5.00;;
18999;SDS011;9633;50.980;13.850;2023-02-21T05:16:56;6.07;;;4.67;;
18999;SDS011;9633;50.980;13.850;2023-02-21T05:18:30;6.70;;;4.67;;
18999;SDS011;9633;50.980;13.850;2023-02-21T05:20:05;7.33;;;5.00;;
18999;SDS011;9633;50.980;13.850;2023-02-21T05:21:41;7.70;;;5.50;;
18999;SDS011;9633;50.980;13.850;2023-02-21T05:23:15;6.60;;;4.70;;
18999;SDS011;9633;50.980;13.850;2023-02-21T05:24:49;8.30;;;4.70;;
18999;SDS011;9633;50.980;13.850;2023-02-21T05:26:23;7.83;;;4.80;;
18999;SDS011;9633;50.980;13.850;2023-02-21T05:27:58;8.50;;;5.57;;
18999;SDS011;9633;50.980;13.850;2023-02-21T05:29:32;7.27;;;5.13;;
18999;SDS011;9633;50.980;13.850;2023-02-21T05:31:05;7.63;;;5.27;;
18999;SDS011;9633;50.980;13.850;2023-02-21T05:32:39;6.37;;;5.00;;
18999;SDS011;9633;50.980;13.850;2023-02-21T05:34:13;7.37;;;5.07;;
18999;SDS011;9633;50.980;13.850;2023-02-21T05:35:47;7.57;;;4.67;;
18999;SDS011;9633;50.980;13.850;2023-02-21T05:37:21;7.03;;;4.90;;
18999;SDS011;9633;50.980;13.850;2023-02-21T05:38:54;7.30;;;5.30;;
18999;SDS011;9633;50.980;13.850;2023-02-21T05:40:27;7.80;;;5.30;;
18999;SDS011;9633;50.980;13.850;2023-02-21T05:42:01;7.47;;;5.13;;
18999;SDS011;9633;50.980;13.850;2023-02-21T05:43:34;7.70;;;5.30;;
18999;SDS011;9633;50.980;13.850;2023-02-21T05:45:09;6.93;;;4.90;;
18999;SDS011;9633;50.980;13.850;2023-02-21T05:46:43;6.30;;;5.00;;
18999;SDS011;9633;50.980;13.850;2023-02-21T05:48:16;8.33;;;5.93;;
18999;SDS011;9633;50.980;13.850;2023-02-21T05:49:50;6.73;;;4.93;;
18999;SDS011;9633;50.980;13.850;2023-02-21T05:51:23;7.43;;;5.17;;
18999;SDS011;9633;50.980;13.850;2023-02-21T05:52:57;7.23;;;5.47;;
18999;SDS011;9633;50.980;13.850;2023-02-21T05:54:31;7.13;;;5.30;;
18999;SDS011;9633;50.980;13.850;2023-02-21T05:56:04;9.90;;;6.20;;
18999;SDS011;9633;50.980;13.850;2023-02-21T05:57:40;8.53;;;5.60;;
18999;SDS011;9633;50.980;13.850;2023-02-21T05:59:14;9.23;;;5.87;;
18999;SDS011;9633;50.980;13.850;2023-02-21T06:00:51;8.00;;;6.00;;
18999;SDS011;9633;50.980;13.850;2023-02-21T06:02:24;8.23;;;5.23;;
18999;SDS011;9633;50.980;13.850;2023-02-21T06:03:57;8.07;;;6.00;;
18999;SDS011;9633;50.980;13.850;2023-02-21T06:05:30;8.63;;;6.23;;
18999;SDS011;9633;50.980;13.850;2023-02-21T06:07:03;8.47;;;6.30;;
18999;SDS011;9633;50.980;13.850;2023-02-21T06:08:43;9.20;;;5.60;;
18999;SDS011;9633;50.980;13.850;2023-02-21T06:10:17;7.87;;;5.67;;
18999;SDS011;9633;50.980;13.850;2023-02-21T06:11:54;9.63;;;6.13;;
18999;SDS011;9633;50.980;13.850;2023-02-21T06:13:28;6.97;;;5.43;;
18999;SDS011;9633;50.980;13.850;2023-02-21T06:15:03;10.20;;;6.27;;
18999;SDS011;9633;50.980;13.850;2023-02-21T06:16:39;8.87;;;6.40;;
18999;SDS011;9633;50.980;13.850;2023-02-21T06:18:12;7.93;;;6.40;;
18999;SDS011;9633;50.980;13.850;2023-02-21T06:19:46;9.67;;;6.20;;
18999;SDS011;9633;50.980;13.850;2023-02-21T06:21:19;8.33;;;6.40;;
18999;SDS011;9633;50.980;13.850;2023-02-21T06:22:52;7.90;;;5.93;;
18999;SDS011;9633;50.980;13.850;2023-02-21T06:24:25;8.23;;;5.87;;
18999;SDS011;9633;50.980;13.850;2023-02-21T06:25:58;9.77;;;6.57;;
18999;SDS011;9633;50.980;13.850;2023-02-21T06:27:31;8.70;;;6.50;;
18999;SDS011;9633;50.980;13.850;2023-02-21T06:29:05;8.33;;;6.17;;
18999;SDS011;9633;50.980;13.850;2023-02-21T06:30:38;8.37;;;6.37;;
18999;SDS011;9633;50.980;13.850;2023-02-21T06:32:13;8.47;;;6.80;;
18999;SDS011;9633;50.980;13.850;2023-02-21T06:33:46;9.13;;;6.60;;
18999;SDS011;9633;50.980;13.850;2023-02-21T06:35:20;9.43;;;6.70;;
18999;SDS011;9633;50.980;13.850;2023-02-21T06:36:54;8.83;;;5.90;;
18999;SDS011;9633;50.980;13.850;2023-02-21T06:38:27;8.83;;;6.50;;
18999;SDS011;9633;50.980;13.850;2023-02-21T06:40:00;7.93;;;5.53;;
18999;SDS011;9633;50.980;13.850;2023-02-21T06:41:35;8.77;;;6.53;;
18999;SDS011;9633;50.980;13.850;2023-02-21T06:43:08;8.23;;;6.50;;
18999;SDS011;9633;50.980;13.850;2023-02-21T06:44:42;9.07;;;6.00;;
18999;SDS011;9633;50.980;13.850;2023-02-21T06:46:15;9.27;;;7.00;;
18999;SDS011;9633;50.980;13.850;2023-02-21T06:47:51;8.63;;;6.97;;
18999;SDS011;9633;50.980;13.850;2023-02-21T06:49:25;8.53;;;6.43;;
18999;SDS011;9633;50.980;13.850;2023-02-21T06:50:58;8.17;;;6.27;;
18999;SDS011;9633;50.980;13.850;2023-02-21T06:52:31;8.63;;;5.90;;
18999;SDS011;9633;50.980;13.850;2023-02-21T06:54:04;10.20;;;6.50;;
18999;SDS011;9633;50.980;13.850;2023-02-21T06:55:38;9.10;;;6.50;;
18999;SDS011;9633;50.980;13.850;2023-02-21T06:57:12;11.17;;;6.53;;
18999;SDS011;9633;50.980;13.850;2023-02-21T06:58:45;10.30;;;6.70;;
18999;SDS011;9633;50.980;13.850;2023-02-21T07:00:19;11.70;;;6.50;;
18999;SDS011;9633;50.980;13.850;2023-02-21T07:01:52;10.53;;;6.70;;
18999;SDS011;9633;50.980;13.850;2023-02-21T07:03:27;8.53;;;6.43;;
18999;SDS011;9633;50.980;13.850;2023-02-21T07:05:01;8.40;;;6.30;;
18999;SDS011;9633;50.980;13.850;2023-02-21T07:06:34;8.60;;;5.90;;
18999;SDS011;9633;50.980;13.850;2023-02-21T07:08:07;10.33;;;6.03;;
18999;SDS011;9633;50.980;13.850;2023-02-21T07:09:40;9.23;;;6.80;;
18999;SDS011;9633;50.980;13.850;2023-02-21T07:11:14;10.03;;;6.83;;
18999;SDS011;9633;50.980;13.850;2023-02-21T07:12:47;9.50;;;6.57;;
18999;SDS011;9633;50.980;13.850;2023-02-21T07:14:21;10.50;;;6.80;;
18999;SDS011;9633;50.980;13.850;2023-02-21T07:15:54;8.13;;;6.70;;
18999;SDS011;9633;50.980;13.850;2023-02-21T07:17:27;9.47;;;6.40;;
18999;SDS011;9633;50.980;13.850;2023-02-21T07:19:01;9.40;;;6.90;;
18999;SDS011;9633;50.980;13.850;2023-02-21T07:20:34;8.63;;;7.00;;
18999;SDS011;9633;50.980;13.850;2023-02-21T07:22:08;8.87;;;6.77;;
18999;SDS011;9633;50.980;13.850;2023-02-21T07:23:41;10.53;;;6.93;;
18999;SDS011;9633;50.980;13.850;2023-02-21T07:25:16;7.97;;;6.33;;
18999;SDS011;9633;50.980;13.850;2023-02-21T07:26:51;10.57;;;7.57;;
18999;SDS011;9633;50.980;13.850;2023-02-21T07:28:25;8.60;;;7.10;;
18999;SDS011;9633;50.980;13.850;2023-02-21T07:29:58;9.83;;;7.27;;
18999;SDS011;9633;50.980;13.850;2023-02-21T07:31:31;10.10;;;7.00;;
18999;SDS011;9633;50.980;13.850;2023-02-21T07:33:05;9.47;;;7.00;;
18999;SDS011;9633;50.980;13.850;2023-02-21T07:34:39;10.90;;;6.70;;
18999;SDS011;9633;50.980;13.850;2023-02-21T07:36:13;10.87;;;6.80;;
18999;SDS011;9633;50.980;13.850;2023-02-21T07:37:46;9.00;;;6.97;;
18999;SDS011;9633;50.980;13.850;2023-02-21T07:39:19;8.27;;;6.50;;
18999;SDS011;9633;50.980;13.850;2023-02-21T07:40:53;9.60;;;7.00;;
18999;SDS011;9633;50.980;13.850;2023-02-21T07:42:27;10.30;;;6.93;;
18999;SDS011;9633;50.980;13.850;2023-02-21T07:44:00;7.47;;;5.97;;
18999;SDS011;9633;50.980;13.850;2023-02-21T07:45:34;8.50;;;6.47;;
18999;SDS011;9633;50.980;13.850;2023-02-21T07:47:07;9.13;;;6.90;;
18999;SDS011;9633;50.980;13.850;2023-02-21T07:48:41;11.17;;;6.93;;
18999;SDS011;9633;50.980;13.850;2023-02-21T07:50:17;10.13;;;7.23;;
18999;SDS011;9633;50.980;13.850;2023-02-21T07:51:50;9.73;;;7.53;;
18999;SDS011;9633;50.980;13.850;2023-02-21T07:53:23;10.67;;;7.70;;
18999;SDS011;9633;50.980;13.850;2023-02-21T07:54:57;8.53;;;6.57;;
18999;SDS011;9633;50.980;13.850;2023-02-21T07:56:30;9.57;;;7.10;;
18999;SDS011;9633;50.980;13.850;2023-02-21T07:58:03;9.40;;;7.00;;
18999;SDS011;9633;50.980;13.850;2023-02-21T07:59:36;9.97;;;7.00;;
18999;SDS011;9633;50.980;13.850;2023-02-21T08:01:09;10.17;;;7.00;;
18999;SDS011;9633;50.980;13.850;2023-02-21T08:02:45;9.80;;;7.43;;
18999;SDS011;9633;50.980;13.850;2023-02-21T08:04:20;9.17;;;7.13;;
18999;SDS011;9633;50.980;13.850;2023-02-21T08:05:56;9.07;;;6.93;;
18999;SDS011;9633;50.980;13.850;2023-02-21T08:07:30;10.07;;;6.90;;
18999;SDS011;9633;50.980;13.850;2023-02-21T08:09:03;10.23;;;7.37;;
18999;SDS011;9633;50.980;13.850;2023-02-21T08:10:37;10.87;;;7.40;;
18999;SDS011;9633;50.980;13.850;2023-02-21T08:12:10;9.10;;;7.03;;
18999;SDS011;9633;50.980;13.850;2023-02-21T08:13:43;10.03;;;7.10;;
18999;SDS011;9633;50.980;13.850;2023-02-21T08:15:17;9.97;;;7.83;;
18999;SDS011;9633;50.980;13.850;2023-02-21T08:16:50;9.43;;;7.70;;
18999;SDS011;9633;50.980;13.850;2023-02-21T08:18:23;11.50;;;7.83;;
18999;SDS011;9633;50.980;13.850;2023-02-21T08:19:57;11.87;;;7.97;;
18999;SDS011;9633;50.980;13.850;2023-02-21T08:21:31;12.93;;;8.03;;
18999;SDS011;9633;50.980;13.850;2023-02-21T08:23:04;10.10;;;7.70;;
18999;SDS011;9633;50.980;13.850;2023-02-21T08:24:37;9.80;;;7.33;;
18999;SDS011;9633;50.980;13.850;2023-02-21T08:26:10;10.93;;;8.17;;
18999;SDS011;9633;50.980;13.850;2023-02-21T08:27:44;10.53;;;7.67;;
18999;SDS011;9633;50.980;13.850;2023-02-21T08:29:23;9.33;;;7.37;;
18999;SDS011;9633;50.980;13.850;2023-02-21T08:30:56;11.37;;;7.77;;
18999;SDS011;9633;50.980;13.850;2023-02-21T08:32:30;12.33;;;7.70;;
18999;SDS011;9633;50.980;13.850;2023-02-21T08:34:03;10.13;;;7.70;;
18999;SDS011;9633;50.980;13.850;2023-02-21T08:35:37;9.57;;;7.30;;
18999;SDS011;9633;50.980;13.850;2023-02-21T08:37:12;11.30;;;7.73;;
18999;SDS011;9633;50.980;13.850;2023-02-21T08:38:47;10.10;;;7.60;;
18999;SDS011;9633;50.980;13.850;2023-02-21T08:40:21;10.60;;;7.40;;
18999;SDS011;9633;50.980;13.850;2023-02-21T08:41:55;8.63;;;7.07;;
18999;SDS011;9633;50.980;13.850;2023-02-21T08:43:29;10.37;;;7.70;;
18999;SDS011;9633;50.980;13.850;2023-02-21T08:45:02;10.10;;;7.40;;
18999;SDS011;9633;50.980;13.850;2023-02-21T08:46:35;10.03;;;7.17;;
18999;SDS011;9633;50.980;13.850;2023-02-21T08:48:09;8.10;;;6.97;;
18999;SDS011;9633;50.980;13.850;2023-02-21T08:49:43;9.10;;;7.50;;
18999;SDS011;9633;50.980;13.850;2023-02-21T08:51:17;12.23;;;7.47;;
18999;SDS011;9633;50.980;13.850;2023-02-21T08:52:57;10.93;;;7.57;;
18999;SDS011;9633;50.980;13.850;2023-02-21T08:54:31;10.37;;;7.80;;
18999;SDS011;9633;50.980;13.850;2023-02-21T08:56:04;14.07;;;8.00;;
18999;SDS011;9633;50.980;13.850;2023-02-21T08:57:37;11.27;;;7.87;;
18999;SDS011;9633;50.980;13.850;2023-02-21T08:59:10;9.13;;;7.00;;
18999;SDS011;9633;50.980;13.850;2023-02-21T09:00:44;10.73;;;7.67;;
18999;SDS011;9633;50.980;13.850;2023-02-21T09:02:18;10.07;;;7.30;;
18999;SDS011;9633;50.980;13.850;2023-02-21T09:03:53;9.63;;;6.90;;
18999;SDS011;9633;50.980;13.850;2023-02-21T09:05:27;11.53;;;7.47;;
18999;SDS011;9633;50.980;13.850;2023-02-21T09:07:01;11.27;;;7.53;;
18999;SDS011;9633;50.980;13.850;2023-02-21T09:08:35;11.50;;;7.00;;
18999;SDS011;9633;50.980;13.850;2023-02-21T09:10:10;9.63;;;7.53;;
18999;SDS011;9633;50.980;13.850;2023-02-21T09:11:43;9.30;;;7.07;;
18999;SDS011;9633;50.980;13.850;2023-02-21T09:13:18;9.13;;;6.97;;
18999;SDS011;9633;50.980;13.850;2023-02-21T09:14:51;9.47;;;6.73;;
18999;SDS011;9633;50.980;13.850;2023-02-21T09:16:24;8.73;;;6.57;;
18999;SDS011;9633;50.980;13.850;2023-02-21T09:17:58;9.20;;;6.53;;
18999;SDS011;9633;50.980;13.850;2023-02-21T09:19:31;8.33;;;6.30;;
18999;SDS011;9633;50.980;13.850;2023-02-21T09:21:05;7.73;;;5.90;;
18999;SDS011;9633;50.980;13.850;2023-02-21T09:22:39;9.20;;;6.93;;
18999;SDS011;9633;50.980;13.850;2023-02-21T09:24:16;9.13;;;6.40;;
18999;SDS011;9633;50.980;13.850;2023-02-21T09:25:55;7.90;;;6.63;;
18999;SDS011;9633;50.980;13.850;2023-02-21T09:27:28;7.33;;;5.33;;
18999;SDS011;9633;50.980;13.850;2023-02-21T09:29:07;6.83;;;5.83;;
18999;SDS011;9633;50.980;13.850;2023-02-21T09:30:43;9.00;;;5.77;;
18999;SDS011;9633;50.980;13.850;2023-02-21T09:32:16;8.57;;;6.27;;
18999;SDS011;9633;50.980;13.850;2023-02-21T09:33:49;7.77;;;6.10;;
18999;SDS011;9633;50.980;13.850;2023-02-21T09:35:22;7.47;;;5.83;;
18999;SDS011;9633;50.980;13.850;2023-02-21T09:36:55;7.80;;;6.07;;
18999;SDS011;9633;50.980;13.850;2023-02-21T09:38:30;7.87;;;6.13;;
18999;SDS011;9633;50.980;13.850;2023-02-21T09:40:05;9.83;;;6.60;;
18999;SDS011;9633;50.980;13.850;2023-02-21T09:41:43;8.13;;;6.00;;
18999;SDS011;9633;50.980;13.850;2023-02-21T09:43:18;8.33;;;6.10;;
18999;SDS011;9633;50.980;13.850;2023-02-21T09:44:56;8.13;;;6.47;;
18999;SDS011;9633;50.980;13.850;2023-02-21T09:46:31;8.83;;;6.60;;
18999;SDS011;9633;50.980;13.850;2023-02-21T09:48:08;7.60;;;6.00;;
18999;SDS011;9633;50.980;13.850;2023-02-21T09:49:45;9.60;;;6.50;;
18999;SDS011;9633;50.980;13.850;2023-02-21T09:51:19;8.07;;;6.60;;
18999;SDS011;9633;50.980;13.850;2023-02-21T09:52:54;7.13;;;6.27;;
18999;SDS011;9633;50.980;13.850;2023-02-21T09:54:29;8.53;;;6.70;;
18999;SDS011;9633;50.980;13.850;2023-02-21T09:56:07;8.93;;;6.73;;